Time;durP1;ratioP1;P1;durP2;ratioP2;P2;SDS_P1;SDS_P2;PMS_P1;PMS_P2;Temp;Humidity;BMP_temperature;BMP_pressure;BME280_temperature;BME280_humidity;BME280_pressure;Samples;Min_cycle;Max_cycle;Signal;HPM_P1;HPM_P2
2022/01/18 00:01:15;;;;;;;25.67;12.95;;;8.20;80.80;;;;;;5001297;28;20080;-75
2022/01/18 00:03:41;;;;;;;25.35;12.13;;;8.20;80.70;;;;;;5015191;28;20029;-76
2022/01/18 00:06:07;;;;;;;22.23;12.60;;;8.10;80.60;;;;;;5010101;28;20030;-75
2022/01/18 00:08:33;;;;;;;28.30;12.57;;;8.10;80.80;;;;;;5000671;28;20116;-76
2022/01/18 00:10:59;;;;;;;25.45;13.80;;;8.10;80.90;;;;;;5001316;28;20061;-75
2022/01/18 00:18:36;;;;;;;25.88;12.73;;;8.20;80.80;;;;;;4996840;28;20023;-75
2022/01/18 00:23:33;;;;;;;24.13;12.27;;;8.30;80.90;;;;;;4995771;28;20023;-76
2022/01/18 00:25:59;;;;;;;23.48;11.55;;;8.20;80.70;;;;;;4995456;28;20050;-76
2022/01/18 00:28:27;;;;;;;22.42;11.55;;;8.20;80.40;;;;;;4995400;28;20109;-75
2022/01/18 00:36:23;;;;;;;23.48;12.20;;;8.20;81.10;;;;;;4996026;28;20026;-75
2022/01/18 00:38:49;;;;;;;22.23;11.00;;;8.20;80.90;;;;;;4995206;28;20058;-76
2022/01/18 00:41:21;;;;;;;24.42;11.45;;;8.20;80.60;;;;;;4995362;28;20031;-75
2022/01/18 00:43:47;;;;;;;21.45;10.77;;;8.20;80.50;;;;;;5013571;28;20018;-75
2022/01/18 00:46:13;;;;;;;20.95;10.30;;;8.20;80.50;;;;;;5001690;28;20023;-75
2022/01/18 00:48:40;;;;;;;23.35;11.40;;;8.20;81.00;;;;;;4995123;28;20030;-75
2022/01/18 00:51:09;;;;;;;21.65;11.27;;;8.20;81.00;;;;;;4994875;28;20026;-76
2022/01/18 00:53:37;;;;;;;23.92;11.10;;;8.20;80.70;;;;;;5014575;28;20033;-76
2022/01/18 00:58:35;;;;;;;22.50;11.70;;;8.00;80.60;;;;;;5017018;28;20046;-75
2022/01/18 01:01:00;;;;;;;24.52;11.52;;;8.00;80.60;;;;;;5016476;28;20030;-76
2022/01/18 01:03:26;;;;;;;24.10;11.65;;;8.10;81.00;;;;;;5038050;28;20021;-75
2022/01/18 01:05:52;;;;;;;22.02;12.00;;;7.90;80.50;;;;;;5037308;28;20022;-75
2022/01/18 01:08:18;;;;;;;26.00;12.50;;;7.90;81.10;;;;;;5038341;28;20025;-76
2022/01/18 01:10:44;;;;;;;25.50;11.93;;;7.90;81.10;;;;;;5022590;28;20053;-75
2022/01/18 01:13:11;;;;;;;25.50;11.35;;;8.00;81.30;;;;;;4998830;28;20027;-75
2022/01/18 01:43:28;;;;;;;20.67;11.45;;;7.90;80.50;;;;;;5001911;28;20084;-76
2022/01/18 01:45:54;;;;;;;;;;;7.80;80.00;;;;;;4998298;28;20034;-75
2022/01/18 01:48:23;;;;;;;23.80;10.55;;;7.90;79.90;;;;;;4997934;28;19905;-76
2022/01/18 01:50:55;;;;;;;29.17;11.73;;;7.90;79.90;;;;;;5011795;28;20159;-75
2022/01/18 01:53:23;;;;;;;22.13;11.77;;;7.80;80.20;;;;;;4998066;28;20018;-75
2022/01/18 01:55:50;;;;;;;25.73;12.70;;;7.80;80.30;;;;;;4997993;28;20038;-76
2022/01/18 01:58:16;;;;;;;25.02;11.73;;;7.90;80.20;;;;;;4997874;28;20054;-75
2022/01/18 02:01:09;;;;;;;21.98;12.45;;;8.00;80.20;;;;;;4997596;28;20038;-76
2022/01/18 02:03:35;;;;;;;25.25;12.30;;;8.00;80.10;;;;;;4997451;28;20150;-75
2022/01/18 02:06:01;;;;;;;21.35;11.68;;;8.00;80.30;;;;;;4997769;28;20501;-75
2022/01/18 02:08:26;;;;;;;25.88;12.50;;;8.00;80.30;;;;;;4997696;28;20222;-75
2022/01/18 02:10:52;;;;;;;24.05;11.77;;;7.90;80.10;;;;;;4997585;28;20041;-75
2022/01/18 02:13:18;;;;;;;26.40;12.10;;;7.90;80.50;;;;;;4997361;28;20041;-75
2022/01/18 02:24:03;;;;;;;28.98;13.18;;;7.80;80.20;;;;;;4997927;28;20085;-75
2022/01/18 02:26:28;;;;;;;22.10;11.82;;;7.90;80.40;;;;;;5003023;28;20523;-75
2022/01/18 02:28:57;;;;;;;20.38;9.63;;;7.80;79.60;;;;;;4997258;28;20385;-75
2022/01/18 02:31:23;;;;;;;25.65;12.15;;;7.70;79.40;;;;;;4997251;28;20027;-76
2022/01/18 02:33:49;;;;;;;26.25;12.95;;;7.80;79.80;;;;;;4997010;28;20032;-75
2022/01/18 02:36:15;;;;;;;23.90;11.40;;;7.70;79.80;;;;;;4997198;28;20030;-76
2022/01/18 02:38:40;;;;;;;25.73;13.18;;;7.70;79.90;;;;;;4996928;28;20109;-75
2022/01/18 02:41:08;;;;;;;26.45;12.50;;;7.70;80.10;;;;;;4997170;28;20114;-75
2022/01/18 02:43:46;;;;;;;14.75;9.00;;;7.80;80.00;;;;;;5013025;28;20049;-75
2022/01/18 02:46:12;;;;;;;21.38;12.48;;;7.70;79.10;;;;;;5016582;28;20033;-75
2022/01/18 02:48:38;;;;;;;21.02;11.15;;;7.70;79.40;;;;;;5006446;28;20053;-75
2022/01/18 02:51:05;;;;;;;18.98;9.73;;;7.70;79.50;;;;;;4996959;28;20031;-75
2022/01/18 02:53:31;;;;;;;23.90;11.30;;;7.70;79.60;;;;;;4996801;28;20042;-76
2022/01/18 02:55:58;;;;;;;25.05;12.20;;;7.80;79.70;;;;;;4996922;28;20030;-75
2022/01/18 02:58:29;;;;;;;25.33;11.98;;;7.80;80.00;;;;;;4996455;28;20053;-75
2022/01/18 03:03:39;;;;;;;24.52;11.93;;;7.90;79.20;;;;;;4996607;28;20058;-75
2022/01/18 03:06:06;;;;;;;23.95;12.50;;;7.80;79.30;;;;;;4996421;28;20033;-76
2022/01/18 03:08:33;;;;;;;27.15;12.52;;;7.80;79.60;;;;;;4996565;28;20084;-76
2022/01/18 03:11:01;;;;;;;27.23;13.32;;;7.80;79.90;;;;;;4996820;28;20022;-76
2022/01/18 03:13:26;;;;;;;21.27;11.43;;;7.80;79.80;;;;;;4996291;28;20018;-75
2022/01/18 03:15:53;;;;;;;28.40;13.63;;;7.80;79.40;;;;;;4999208;28;20022;-75
2022/01/18 03:18:19;;;;;;;26.80;12.75;;;7.80;79.90;;;;;;4996479;28;20563;-75
2022/01/18 03:20:47;;;;;;;27.42;12.93;;;7.80;79.70;;;;;;4995528;28;20034;-75
2022/01/18 03:23:18;;;;;;;24.05;11.93;;;7.80;79.80;;;;;;4996122;28;20094;-75
2022/01/18 03:28:20;;;;;;;21.42;12.15;;;7.70;79.10;;;;;;4996545;28;20058;-75
2022/01/18 03:30:53;;;;;;;22.75;11.63;;;7.70;79.30;;;;;;4996205;28;20026;-75
2022/01/18 03:33:21;;;;;;;25.27;9.23;;;7.70;79.10;;;;;;4995810;28;20027;-75
2022/01/18 03:35:49;;;;;;;24.70;12.23;;;7.50;78.20;;;;;;4995081;28;20019;-75
2022/01/18 03:38:16;;;;;;;23.70;12.30;;;7.70;78.60;;;;;;5011083;28;20038;-75
2022/01/18 03:40:42;;;;;;;18.92;9.43;;;7.70;78.30;;;;;;4995810;28;20074;-75
2022/01/18 03:43:11;;;;;;;25.45;11.88;;;7.60;78.00;;;;;;5005114;28;20504;-75
2022/01/18 03:45:41;;;;;;;22.30;11.30;;;7.60;78.20;;;;;;4994711;28;20120;-75
2022/01/18 03:48:12;;;;;;;24.48;11.90;;;7.60;77.70;;;;;;4995761;28;20033;-75
2022/01/18 03:50:38;;;;;;;26.58;13.02;;;7.50;77.40;;;;;;4994568;28;20125;-75
2022/01/18 03:53:04;;;;;;;22.88;10.95;;;7.60;77.80;;;;;;4995901;28;20057;-75
2022/01/18 03:55:30;;;;;;;22.52;11.80;;;7.70;77.70;;;;;;5011198;28;20461;-75
2022/01/18 03:57:56;;;;;;;18.75;11.73;;;7.60;77.70;;;;;;5010783;28;20420;-75
2022/01/18 04:00:34;;;;;;;25.95;10.93;;;7.70;77.50;;;;;;5010625;28;20026;-75
2022/01/18 04:02:59;;;;;;;17.90;9.55;;;7.50;76.70;;;;;;4995975;28;20039;-76
2022/01/18 04:05:25;;;;;;;22.77;11.30;;;7.40;77.10;;;;;;4995446;28;20096;-75
2022/01/18 04:07:51;;;;;;;23.50;11.63;;;7.40;77.30;;;;;;4995487;28;20034;-75
2022/01/18 04:10:17;;;;;;;17.08;9.85;;;7.40;77.60;;;;;;4995398;28;20038;-75
2022/01/18 04:12:43;;;;;;;16.67;8.88;;;7.40;76.90;;;;;;4995553;28;20054;-75
2022/01/18 04:15:12;;;;;;;20.23;11.27;;;7.30;77.10;;;;;;4997619;28;20045;-75
2022/01/18 04:17:52;;;;;;;24.48;11.13;;;7.30;77.40;;;;;;5015317;28;20041;-75
2022/01/18 04:30:45;;;;;;;21.75;11.57;;;7.30;78.10;;;;;;4995393;28;20126;-75
2022/01/18 04:33:10;;;;;;;23.90;11.75;;;7.30;78.30;;;;;;4998826;28;20492;-76
2022/01/18 04:35:36;;;;;;;24.73;11.40;;;7.20;78.30;;;;;;4999196;28;20105;-75
2022/01/18 04:38:02;;;;;;;19.75;10.90;;;7.10;78.60;;;;;;4999382;28;20045;-75
2022/01/18 04:40:30;;;;;;;22.60;11.25;;;7.00;79.10;;;;;;4999502;28;20054;-75
2022/01/18 04:48:28;;;;;;;21.63;10.75;;;6.90;79.20;;;;;;4999468;28;20045;-75
2022/01/18 04:51:03;;;;;;;23.52;11.60;;;6.80;79.40;;;;;;4998904;28;20069;-75
2022/01/18 04:53:31;;;;;;;23.30;10.95;;;6.80;79.40;;;;;;4998835;28;20052;-75
2022/01/18 04:56:00;;;;;;;22.98;10.43;;;6.70;79.50;;;;;;4999299;28;20022;-76
2022/01/18 04:58:27;;;;;;;22.27;12.05;;;6.70;79.50;;;;;;4998936;28;20093;-75
2022/01/18 05:00:55;;;;;;;23.13;10.57;;;6.70;79.80;;;;;;4998784;28;20026;-75
2022/01/18 05:03:21;;;;;;;20.90;11.30;;;6.50;79.80;;;;;;5014140;28;20044;-75
2022/01/18 05:05:49;;;;;;;27.75;12.10;;;6.50;80.00;;;;;;4998975;28;20018;-76
2022/01/18 05:08:16;;;;;;;25.73;12.55;;;6.50;79.70;;;;;;5014061;28;20034;-75
2022/01/18 05:10:44;;;;;;;22.50;13.10;;;6.40;79.50;;;;;;4998971;28;20030;-75
2022/01/18 05:13:19;;;;;;;23.58;12.23;;;6.40;79.90;;;;;;4998922;28;20026;-75
2022/01/18 05:15:52;;;;;;;23.17;11.38;;;6.40;79.90;;;;;;5020746;28;20037;-75
2022/01/18 05:23:40;;;;;;;26.52;12.60;;;6.30;80.00;;;;;;5008262;28;20047;-77
2022/01/18 05:26:08;;;;;;;28.00;12.90;;;6.30;80.10;;;;;;5003072;28;20030;-75
2022/01/18 05:28:34;;;;;;;25.90;12.30;;;6.10;79.90;;;;;;4998699;28;20065;-74
2022/01/18 05:31:00;;;;;;;20.73;12.32;;;6.10;80.30;;;;;;4998401;28;20065;-75
2022/01/18 05:33:25;;;;;;;26.13;11.57;;;6.00;80.10;;;;;;4998145;28;20030;-75
2022/01/18 05:35:52;;;;;;;22.58;11.63;;;6.00;80.40;;;;;;4998579;28;20027;-75
2022/01/18 05:38:17;;;;;;;23.15;11.00;;;5.90;80.70;;;;;;5003235;28;20034;-75
2022/01/18 05:40:43;;;;;;;26.17;12.38;;;5.80;80.90;;;;;;5017839;28;20022;-75
2022/01/18 05:43:11;;;;;;;25.60;12.13;;;5.70;81.30;;;;;;5016532;28;20034;-75
2022/01/18 05:45:37;;;;;;;29.17;12.77;;;5.70;81.40;;;;;;5017370;28;20480;-78
2022/01/18 05:59:37;;;;;;;25.27;11.60;;;4.70;83.90;;;;;;5152843;27;20407;-78
2022/01/18 06:02:15;;;;;;;24.15;12.25;;;4.50;84.50;;;;;;5112901;28;20060;-80
2022/01/18 06:07:28;;;;;;;25.17;12.07;;;4.80;84.60;;;;;;5111218;27;20442;-77
2022/01/18 06:09:56;;;;;;;26.63;13.30;;;4.80;84.90;;;;;;5132752;27;20023;-78
2022/01/18 06:12:23;;;;;;;28.52;13.52;;;4.90;85.30;;;;;;5131212;28;20042;-78
2022/01/18 06:14:49;;;;;;;34.17;14.00;;;5.10;84.80;;;;;;5131189;27;21042;-82
2022/01/18 06:17:17;;;;;;;33.80;13.00;;;5.20;84.40;;;;;;5111789;28;20036;-78
2022/01/18 06:19:43;;;;;;;28.48;12.98;;;5.30;84.20;;;;;;5122678;27;20028;-82
2022/01/18 06:22:08;;;;;;;32.47;14.50;;;5.30;84.00;;;;;;5132986;28;20118;-80
2022/01/18 06:34:22;;;;;;;49.38;19.15;;;4.40;86.80;;;;;;5057413;28;20392;-81
2022/01/18 06:36:47;;;;;;;34.25;16.05;;;4.30;86.90;;;;;;5053660;28;20534;-81
2022/01/18 06:39:16;;;;;;;39.50;14.90;;;4.50;87.00;;;;;;5067927;28;20028;-81
2022/01/18 06:41:46;;;;;;;41.35;16.73;;;4.70;87.10;;;;;;5067545;28;20402;-81
2022/01/18 06:44:12;;;;;;;31.67;14.50;;;5.00;86.50;;;;;;5064956;28;20523;-81
2022/01/18 06:46:38;;;;;;;35.88;15.63;;;5.00;86.10;;;;;;5052207;28;20025;-81
2022/01/18 06:49:04;;;;;;;119.03;44.10;;;5.10;86.40;;;;;;5057401;28;20086;-81
2022/01/18 06:51:31;;;;;;;53.10;25.85;;;5.00;86.50;;;;;;5071673;28;20036;-80
2022/01/18 06:53:56;;;;;;;44.70;20.85;;;5.10;86.90;;;;;;5066355;28;20033;-80
2022/01/18 06:56:25;;;;;;;42.95;20.35;;;5.20;86.70;;;;;;5052234;28;20032;-83
2022/01/18 06:58:51;;;;;;;44.28;18.83;;;5.30;86.60;;;;;;5052049;28;20051;-83
2022/01/18 07:01:17;;;;;;;47.92;21.38;;;5.50;85.60;;;;;;5060363;28;20407;-83
2022/01/18 07:03:42;;;;;;;40.42;19.05;;;5.50;85.40;;;;;;5066612;28;20021;-83
2022/01/18 07:06:08;;;;;;;40.03;18.88;;;5.50;85.00;;;;;;5067278;28;20507;-82
2022/01/18 07:08:34;;;;;;;43.28;20.10;;;5.30;85.50;;;;;;5051286;28;20112;-82
2022/01/18 07:11:00;;;;;;;47.85;19.35;;;5.30;86.30;;;;;;5056340;28;20035;-82
2022/01/18 07:13:26;;;;;;;47.92;17.58;;;5.50;85.70;;;;;;5064486;28;20470;-82
2022/01/18 07:15:53;;;;;;;49.03;19.05;;;5.70;85.20;;;;;;5059756;28;20021;-82
2022/01/18 07:18:19;;;;;;;53.72;20.85;;;5.80;84.60;;;;;;5068923;28;20029;-83
2022/01/18 07:20:45;;;;;;;48.05;20.15;;;5.90;84.10;;;;;;5069303;28;20040;-78
2022/01/18 07:23:13;;;;;;;38.30;17.00;;;6.00;83.90;;;;;;5071362;28;20102;-78
2022/01/18 07:25:45;;;;;;;48.38;18.60;;;5.90;83.00;;;;;;5050624;28;20031;-78
2022/01/18 07:28:13;;;;;;;45.55;17.88;;;5.90;83.90;;;;;;5067968;28;20024;-78
2022/01/18 07:30:39;;;;;;;46.40;17.98;;;6.00;83.70;;;;;;5067216;28;20027;-78
2022/01/18 07:33:05;;;;;;;49.63;24.45;;;6.00;83.40;;;;;;5069371;28;20047;-79
2022/01/18 07:35:34;;;;;;;59.08;25.33;;;6.00;83.20;;;;;;5068067;28;20530;-79
2022/01/18 07:38:01;;;;;;;50.05;23.95;;;5.90;83.50;;;;;;5068069;28;20028;-82
2022/01/18 07:40:29;;;;;;;40.58;19.52;;;5.80;84.00;;;;;;5066367;28;20092;-82
2022/01/18 07:42:55;;;;;;;48.80;20.67;;;5.90;84.10;;;;;;5069159;28;20025;-82
2022/01/18 07:45:21;;;;;;;43.88;20.52;;;5.90;84.10;;;;;;5055343;28;20028;-82
2022/01/18 07:47:47;;;;;;;42.50;17.58;;;6.00;84.10;;;;;;5057710;28;20052;-82
2022/01/18 07:50:13;;;;;;;38.47;17.17;;;6.00;83.80;;;;;;5055574;28;20051;-82
2022/01/18 07:52:39;;;;;;;46.22;19.23;;;6.10;83.50;;;;;;5052780;28;20025;-84
2022/01/18 07:55:06;;;;;;;43.97;17.70;;;6.20;83.20;;;;;;5055567;28;20035;-83
2022/01/18 07:57:32;;;;;;;38.55;17.80;;;6.20;83.00;;;;;;5057472;28;20066;-82
2022/01/18 08:00:04;;;;;;;41.08;18.10;;;6.10;83.20;;;;;;5056690;28;20030;-81
2022/01/18 08:02:31;;;;;;;46.65;17.38;;;6.00;82.70;;;;;;5041593;28;20029;-80
2022/01/18 08:04:57;;;;;;;48.83;18.73;;;6.00;83.80;;;;;;5054068;28;20155;-81
2022/01/18 08:07:23;;;;;;;49.30;16.70;;;6.00;83.90;;;;;;5054919;28;20040;-84
2022/01/18 08:09:49;;;;;;;33.22;13.20;;;6.00;83.30;;;;;;5048831;28;20017;-83
2022/01/18 08:12:15;;;;;;;44.15;17.42;;;5.80;83.00;;;;;;5056866;28;20600;-83
2022/01/18 08:14:45;;;;;;;46.08;17.90;;;5.70;83.90;;;;;;5051609;28;20067;-84
2022/01/18 08:17:11;;;;;;;47.92;18.65;;;5.90;83.50;;;;;;5061474;28;20028;-83
2022/01/18 08:19:37;;;;;;;41.15;15.27;;;6.00;83.20;;;;;;5056383;28;20029;-84
2022/01/18 08:22:04;;;;;;;42.40;16.55;;;6.00;82.60;;;;;;5055066;28;20060;-84
2022/01/18 08:24:29;;;;;;;30.25;12.18;;;6.00;82.70;;;;;;5056366;28;20028;-84
2022/01/18 08:26:55;;;;;;;39.97;15.38;;;6.00;82.30;;;;;;5053873;28;20032;-84
2022/01/18 08:29:21;;;;;;;43.22;18.38;;;6.00;82.70;;;;;;5055557;28;20029;-83
2022/01/18 08:31:47;;;;;;;36.42;15.68;;;6.10;82.90;;;;;;5053354;28;20040;-84
2022/01/18 08:34:14;;;;;;;40.55;17.17;;;6.10;82.70;;;;;;5046696;28;20037;-84
2022/01/18 08:36:40;;;;;;;51.95;21.20;;;6.20;82.90;;;;;;5051284;28;20051;-82
2022/01/18 08:39:07;;;;;;;48.30;19.23;;;6.20;82.20;;;;;;5055954;28;20088;-80
2022/01/18 08:41:33;;;;;;;42.15;16.83;;;6.20;82.50;;;;;;5040779;28;20045;-83
2022/01/18 08:43:59;;;;;;;41.90;16.60;;;6.20;82.40;;;;;;5055429;28;20029;-83
2022/01/18 08:46:25;;;;;;;44.63;17.27;;;6.20;82.70;;;;;;5055996;28;20023;-79
2022/01/18 08:48:51;;;;;;;38.60;15.65;;;6.20;82.30;;;;;;5053410;28;20029;-84
2022/01/18 08:51:18;;;;;;;51.47;17.13;;;6.30;82.20;;;;;;5055706;28;20025;-83
2022/01/18 08:53:48;;;;;;;45.05;18.67;;;6.40;82.20;;;;;;5053709;28;20033;-84
2022/01/18 08:56:16;;;;;;;70.32;25.42;;;6.50;82.00;;;;;;5054236;28;20075;-83
2022/01/18 08:58:42;;;;;;;65.15;24.00;;;6.60;81.40;;;;;;5055931;28;20090;-81
2022/01/18 09:01:07;;;;;;;60.85;21.63;;;6.70;81.60;;;;;;5055861;28;20033;-85
2022/01/18 09:03:33;;;;;;;50.58;18.40;;;6.80;80.90;;;;;;5054115;28;20066;-84
2022/01/18 09:05:59;;;;;;;46.40;19.30;;;6.70;81.10;;;;;;5054149;28;20522;-84
2022/01/18 09:08:24;;;;;;;55.67;23.10;;;6.60;81.10;;;;;;5056014;28;20100;-84
2022/01/18 09:10:52;;;;;;;59.00;24.13;;;6.70;81.50;;;;;;5055010;28;20013;-84
2022/01/18 09:13:18;;;;;;;59.92;23.27;;;6.80;81.50;;;;;;5054148;28;20037;-78
2022/01/18 09:15:44;;;;;;;48.65;20.23;;;6.90;81.20;;;;;;5054090;28;20017;-85
2022/01/18 09:18:10;;;;;;;41.97;19.38;;;6.90;80.30;;;;;;5054399;28;20029;-79
2022/01/18 09:20:39;;;;;;;43.33;18.58;;;6.90;80.80;;;;;;5053670;28;20032;-81
2022/01/18 09:23:05;;;;;;;38.13;14.60;;;6.90;80.70;;;;;;5053652;28;20060;-80
2022/01/18 09:25:32;;;;;;;31.83;15.43;;;6.90;80.10;;;;;;5054534;28;20483;-80
2022/01/18 09:27:58;;;;;;;40.22;14.40;;;6.80;80.50;;;;;;5054697;28;20108;-83
2022/01/18 09:30:26;;;;;;;53.13;20.88;;;6.70;80.60;;;;;;5045909;28;20288;-81
2022/01/18 09:32:54;;;;;;;50.67;22.08;;;6.70;81.00;;;;;;5054844;28;20060;-81
2022/01/18 09:35:21;;;;;;;50.20;21.40;;;6.90;80.70;;;;;;5055296;28;20495;-81
2022/01/18 09:37:48;;;;;;;54.22;23.33;;;7.10;80.40;;;;;;5054445;28;20040;-81
2022/01/18 09:40:18;;;;;;;40.50;17.08;;;7.20;80.30;;;;;;5035046;28;20030;-83
2022/01/18 09:42:52;;;;;;;34.15;14.30;;;7.40;78.90;;;;;;5040310;28;20025;-80
2022/01/18 09:45:19;;;;;;;32.75;15.25;;;7.70;77.60;;;;;;5033891;28;20030;-81
2022/01/18 09:47:48;;;;;;;40.83;18.52;;;7.80;78.50;;;;;;5049657;28;20033;-81
2022/01/18 09:50:18;;;;;;;42.08;19.30;;;7.90;76.80;;;;;;5034496;28;20025;-81
2022/01/18 09:52:50;;;;;;;44.00;16.55;;;8.00;77.30;;;;;;5034890;28;20044;-81
2022/01/18 09:55:16;;;;;;;29.20;14.05;;;8.00;76.50;;;;;;5034700;28;20057;-80
2022/01/18 09:57:42;;;;;;;34.55;15.02;;;8.10;76.20;;;;;;5051732;28;20033;-81
2022/01/18 10:00:08;;;;;;;32.85;14.82;;;8.20;76.10;;;;;;5053529;28;20021;-81
2022/01/18 10:02:34;;;;;;;34.05;15.07;;;8.20;76.20;;;;;;5054407;28;20455;-81
2022/01/18 10:05:00;;;;;;;32.40;14.85;;;8.20;76.70;;;;;;5049554;28;20095;-81
2022/01/18 10:07:36;;;;;;;36.45;15.30;;;8.20;76.50;;;;;;5053869;28;20025;-81
2022/01/18 10:10:05;;;;;;;29.10;13.60;;;8.10;76.10;;;;;;5054681;28;20017;-81
2022/01/18 10:12:31;;;;;;;35.72;16.67;;;7.90;75.90;;;;;;5053227;28;20491;-81
2022/01/18 10:14:59;;;;;;;34.97;14.38;;;7.70;77.00;;;;;;5054384;28;20032;-81
2022/01/18 10:17:35;;;;;;;28.13;12.85;;;7.50;77.00;;;;;;5052153;28;20025;-80
2022/01/18 10:20:17;;;;;;;38.20;14.93;;;7.50;78.40;;;;;;5066767;28;20108;-81
2022/01/18 10:22:48;;;;;;;26.27;12.80;;;7.50;78.30;;;;;;5047822;28;20056;-82
2022/01/18 10:25:19;;;;;;;28.30;12.68;;;7.40;78.30;;;;;;5054561;28;20071;-82
2022/01/18 10:27:53;;;;;;;22.42;12.32;;;7.30;78.20;;;;;;5038611;28;20121;-82
2022/01/18 10:30:32;;;;;;;29.95;13.57;;;7.30;78.20;;;;;;5052151;28;20057;-81
2022/01/18 10:33:09;;;;;;;27.83;12.50;;;7.60;77.90;;;;;;5052692;28;20102;-82
2022/01/18 10:35:34;;;;;;;27.40;9.82;;;7.40;77.70;;;;;;5046641;28;20025;-81
2022/01/18 10:38:00;;;;;;;23.10;10.65;;;7.50;77.00;;;;;;5034305;28;20543;-81
2022/01/18 10:40:26;;;;;;;26.17;12.02;;;7.60;76.50;;;;;;5053109;28;20116;-81
2022/01/18 10:42:54;;;;;;;23.50;11.77;;;7.70;77.10;;;;;;5053754;28;20396;-81
2022/01/18 10:45:27;;;;;;;23.50;10.85;;;7.80;76.80;;;;;;5043777;28;20057;-82
2022/01/18 10:47:59;;;;;;;18.92;9.20;;;7.90;75.90;;;;;;5071187;28;20021;-81
2022/01/18 10:50:26;;;;;;;22.33;10.52;;;7.80;75.60;;;;;;5034560;28;20033;-82
2022/01/18 10:52:53;;;;;;;24.60;12.40;;;7.70;75.80;;;;;;5034272;28;20715;-82
2022/01/18 10:55:21;;;;;;;20.67;10.20;;;7.80;76.20;;;;;;5034398;28;20399;-82
2022/01/18 10:57:47;;;;;;;21.23;10.82;;;7.50;76.20;;;;;;5033788;28;20032;-82
2022/01/18 11:00:25;;;;;;;24.52;11.65;;;7.40;76.30;;;;;;5033031;28;20043;-82
2022/01/18 11:02:55;;;;;;;27.08;12.20;;;7.50;76.70;;;;;;5034119;28;20569;-82
2022/01/18 11:05:29;;;;;;;25.60;11.70;;;7.60;76.90;;;;;;5034041;28;20028;-81
2022/01/18 11:07:57;;;;;;;20.40;10.38;;;7.80;76.30;;;;;;5071015;28;20021;-82
2022/01/18 11:10:30;;;;;;;30.55;12.88;;;7.70;75.40;;;;;;5053423;28;20028;-81
2022/01/18 11:13:22;;;;;;;23.85;11.43;;;7.80;75.60;;;;;;5052525;28;20554;-80
2022/01/18 11:15:52;;;;;;;25.73;12.20;;;7.80;75.80;;;;;;5048352;28;20036;-81
2022/01/18 11:18:28;;;;;;;27.70;11.93;;;8.00;75.80;;;;;;5051965;28;20736;-82
2022/01/18 11:20:55;;;;;;;25.77;12.25;;;8.00;75.00;;;;;;5057432;28;20033;-77
2022/01/18 11:23:22;;;;;;;27.50;12.98;;;7.90;75.00;;;;;;5060953;28;20059;-76
2022/01/18 11:25:49;;;;;;;20.45;10.40;;;7.90;75.00;;;;;;5046637;28;20017;-78
2022/01/18 11:28:16;;;;;;;28.20;11.77;;;8.00;75.40;;;;;;5040691;28;20040;-77
2022/01/18 11:30:44;;;;;;;22.30;10.45;;;8.00;74.80;;;;;;5059584;28;20021;-77
2022/01/18 11:33:18;;;;;;;19.77;10.00;;;8.10;75.10;;;;;;5045565;28;20041;-78
2022/01/18 11:35:58;;;;;;;18.92;9.55;;;8.20;74.40;;;;;;5036747;28;20030;-78
2022/01/18 11:39:04;;;;;;;21.10;9.80;;;8.20;74.30;;;;;;5035922;28;20415;-77
2022/01/18 11:41:34;;;;;;;17.25;8.95;;;8.30;73.20;;;;;;5039503;28;20641;-80
2022/01/18 11:44:16;;;;;;;21.08;9.85;;;8.30;73.60;;;;;;5038290;28;20033;-77
2022/01/18 11:46:55;;;;;;;17.73;9.02;;;8.40;73.40;;;;;;5037184;28;20081;-80
2022/01/18 11:49:23;;;;;;;19.45;9.60;;;8.60;73.90;;;;;;5054801;28;20142;-79
2022/01/18 11:52:05;;;;;;;17.98;9.18;;;8.70;73.10;;;;;;5048566;28;20029;-81
2022/01/18 11:54:43;;;;;;;16.52;9.55;;;8.80;72.80;;;;;;5047145;28;20373;-79
2022/01/18 11:57:24;;;;;;;19.00;8.77;;;8.80;73.00;;;;;;5043742;28;20026;-79
2022/01/18 12:00:18;;;;;;;18.00;8.57;;;8.80;73.50;;;;;;5050492;28;20052;-79
2022/01/18 12:02:45;;;;;;;20.17;9.25;;;8.80;72.40;;;;;;5044476;28;20036;-80
2022/01/18 12:05:24;;;;;;;18.65;9.73;;;8.90;72.80;;;;;;5039381;28;20579;-78
2022/01/18 12:07:52;;;;;;;18.52;9.68;;;9.00;72.40;;;;;;5049196;28;20013;-80
2022/01/18 12:10:31;;;;;;;23.25;12.88;;;8.80;72.60;;;;;;5049759;28;20033;-80
2022/01/18 12:12:59;;;;;;;19.95;11.52;;;8.70;72.60;;;;;;5036220;28;20029;-76
2022/01/18 12:15:29;;;;;;;19.77;10.40;;;8.80;73.30;;;;;;5042290;28;20017;-76
2022/01/18 12:17:58;;;;;;;22.70;11.20;;;8.80;73.20;;;;;;5054971;28;20063;-76
2022/01/18 12:20:47;;;;;;;21.27;11.57;;;9.00;73.10;;;;;;5055148;28;20439;-76
2022/01/18 12:23:14;;;;;;;20.42;9.80;;;9.00;72.60;;;;;;5055386;28;20466;-76
2022/01/18 12:26:02;;;;;;;23.73;10.50;;;9.00;73.00;;;;;;5052080;28;20462;-76
2022/01/18 12:28:50;;;;;;;25.15;13.65;;;9.00;72.20;;;;;;5054864;28;20021;-76
2022/01/18 12:34:30;;;;;;;22.23;10.98;;;8.90;72.40;;;;;;5054243;28;20132;-76
2022/01/18 12:37:05;;;;;;;17.30;9.23;;;8.80;73.20;;;;;;5050307;28;20052;-74
2022/01/18 12:45:23;;;;;;;18.50;9.82;;;8.70;73.40;;;;;;5054785;28;20075;-76
2022/01/18 12:48:00;;;;;;;20.10;9.07;;;8.60;73.70;;;;;;5035894;28;20369;-75
2022/01/18 12:51:03;;;;;;;17.30;8.90;;;8.70;74.20;;;;;;5035619;28;20018;-76
2022/01/18 12:53:31;;;;;;;18.40;9.18;;;8.70;74.10;;;;;;5036681;28;20090;-76
2022/01/18 12:56:02;;;;;;;18.25;10.05;;;8.80;73.80;;;;;;5038901;28;20195;-77
2022/01/18 12:58:53;;;;;;;18.00;9.38;;;8.70;73.80;;;;;;5035989;28;20163;-76
2022/01/18 13:01:24;;;;;;;20.08;10.52;;;8.70;73.20;;;;;;5041437;28;20037;-77
2022/01/18 13:03:54;;;;;;;;;;;8.70;73.80;;;;;;5055879;28;20051;-77
2022/01/18 13:06:25;;;;;;;14.93;8.90;;;8.70;73.20;;;;;;5049578;28;19948;-77
2022/01/18 13:08:52;;;;;;;20.00;9.00;;;8.60;73.40;;;;;;5035779;28;20447;-76
2022/01/18 13:11:29;;;;;;;21.00;9.20;;;8.40;74.00;;;;;;5054023;28;20044;-77
2022/01/18 13:14:06;;;;;;;19.40;9.18;;;8.30;74.30;;;;;;5055473;28;20021;-76
2022/01/18 13:27:39;;;;;;;18.75;10.45;;;8.70;74.50;;;;;;5035380;28;20029;-76
2022/01/18 13:30:10;;;;;;;18.02;9.35;;;8.80;74.80;;;;;;5034890;28;20124;-76
2022/01/18 13:32:37;;;;;;;23.38;9.32;;;8.70;73.70;;;;;;5035431;28;20115;-76
2022/01/18 13:35:05;;;;;;;22.95;11.82;;;8.70;74.10;;;;;;5034721;28;20059;-75
2022/01/18 13:37:33;;;;;;;21.35;10.38;;;8.80;73.60;;;;;;5035313;28;20022;-76
2022/01/18 13:40:03;;;;;;;17.85;10.43;;;8.90;73.60;;;;;;5033545;28;20065;-75
2022/01/18 13:42:44;;;;;;;21.90;9.95;;;8.90;73.00;;;;;;5040264;28;20426;-75
2022/01/18 13:45:23;;;;;;;18.77;9.77;;;9.00;72.90;;;;;;5048910;28;20063;-76
2022/01/18 13:47:52;;;;;;;17.27;10.00;;;9.00;72.50;;;;;;5035144;28;20430;-76
2022/01/18 13:50:46;;;;;;;20.17;10.02;;;8.90;73.00;;;;;;5040999;28;20040;-76
2022/01/18 13:53:17;;;;;;;16.33;9.30;;;8.80;72.70;;;;;;5050185;28;20053;-76
2022/01/18 13:55:45;;;;;;;19.15;9.80;;;8.70;73.50;;;;;;5050227;28;20036;-75
2022/01/18 13:58:11;;;;;;;15.43;9.93;;;8.70;73.80;;;;;;5034430;28;20677;-76
2022/01/18 14:00:37;;;;;;;20.65;9.88;;;8.80;74.00;;;;;;5035231;28;20083;-76
2022/01/18 14:03:03;;;;;;;19.98;10.60;;;8.80;74.60;;;;;;5045445;28;20036;-76
2022/01/18 14:05:29;;;;;;;19.38;9.85;;;8.70;74.10;;;;;;5034898;28;20029;-76
2022/01/18 14:08:08;;;;;;;17.30;10.77;;;8.50;75.10;;;;;;5052912;28;20396;-76
2022/01/18 14:10:34;;;;;;;20.10;9.77;;;8.60;74.50;;;;;;5035860;28;20072;-76
2022/01/18 14:13:00;;;;;;;15.65;9.18;;;8.70;74.00;;;;;;5054604;28;20036;-76
2022/01/18 14:15:39;;;;;;;16.02;9.30;;;8.70;73.60;;;;;;5048476;28;20033;-75
2022/01/18 14:18:05;;;;;;;14.10;9.27;;;8.70;73.70;;;;;;5053389;28;20033;-76
2022/01/18 14:20:32;;;;;;;30.48;14.75;;;8.70;73.30;;;;;;5049418;28;20033;-76
2022/01/18 14:23:00;;;;;;;23.45;12.38;;;8.70;73.50;;;;;;5034506;28;20025;-76
2022/01/18 14:25:31;;;;;;;18.08;9.85;;;8.80;74.20;;;;;;5049979;28;20028;-76
2022/01/18 14:28:11;;;;;;;20.50;10.88;;;8.80;73.90;;;;;;5052179;28;20025;-75
2022/01/18 14:30:37;;;;;;;25.42;13.18;;;8.70;74.20;;;;;;5053178;28;20100;-75
2022/01/18 14:33:08;;;;;;;23.13;11.00;;;8.80;74.20;;;;;;5054287;28;20053;-76
2022/01/18 14:35:38;;;;;;;20.77;12.27;;;8.70;75.10;;;;;;5054212;28;20021;-73
2022/01/18 14:38:10;;;;;;;19.00;11.70;;;8.50;74.90;;;;;;5036493;28;20105;-76
2022/01/18 14:40:42;;;;;;;24.45;13.30;;;8.40;76.00;;;;;;5034472;28;20557;-75
2022/01/18 14:43:30;;;;;;;20.40;11.95;;;8.60;75.30;;;;;;5045906;28;20526;-76
2022/01/18 14:46:02;;;;;;;27.92;13.30;;;8.30;75.10;;;;;;5052706;28;20031;-75
2022/01/18 14:48:34;;;;;;;21.45;11.68;;;8.40;75.30;;;;;;5035639;28;20085;-76
2022/01/18 14:51:00;;;;;;;24.10;11.95;;;8.30;76.00;;;;;;5033032;28;20026;-76